Time;durP1;ratioP1;P1;durP2;ratioP2;P2;SDS_P1;SDS_P2;PMS_P1;PMS_P2;Temp;Humidity;BMP_temperature;BMP_pressure;BME280_temperature;BME280_humidity;BME280_pressure;Samples;Min_cycle;Max_cycle;Signal;HPM_P1;HPM_P2
2021/03/28 00:01:02;;;;;;;50.00;5.82;;;4.40;99.90;;;;;;5014025;28;20034;-75
2021/03/28 00:03:30;;;;;;;58.78;6.20;;;4.30;99.90;;;;;;5013954;28;20029;-75
2021/03/28 00:06:29;;;;;;;48.85;5.53;;;4.30;99.90;;;;;;5028496;28;20022;-75
2021/03/28 00:09:09;;;;;;;48.10;6.13;;;4.30;99.90;;;;;;5029115;28;20045;-75
2021/03/28 00:11:53;;;;;;;38.47;5.57;;;4.20;99.90;;;;;;5013814;28;20506;-75
2021/03/28 00:14:47;;;;;;;60.20;9.27;;;4.20;99.90;;;;;;5013183;28;20030;-75
2021/03/28 00:17:19;;;;;;;;;;;4.20;99.90;;;;;;4992254;28;20038;-75
2021/03/28 00:20:07;;;;;;;53.47;6.68;;;4.30;99.90;;;;;;5013744;28;19912;-75
2021/03/28 00:22:36;;;;;;;57.22;6.93;;;4.30;99.90;;;;;;5013689;28;20046;-75
2021/03/28 00:25:33;;;;;;;52.08;7.47;;;4.30;99.90;;;;;;5011469;28;20113;-75
2021/03/28 00:28:02;;;;;;;53.38;6.75;;;4.30;99.90;;;;;;5013691;28;20474;-75
2021/03/28 00:30:32;;;;;;;75.05;9.40;;;4.20;99.90;;;;;;5013537;28;20025;-75
2021/03/28 00:33:10;;;;;;;65.22;10.80;;;4.20;99.90;;;;;;5013208;28;20538;-75
2021/03/28 00:35:59;;;;;;;62.30;9.52;;;4.30;99.90;;;;;;5012376;28;20510;-75
2021/03/28 00:38:30;;;;;;;79.05;7.93;;;4.30;99.90;;;;;;5028457;28;20402;-75
2021/03/28 00:41:06;;;;;;;89.03;9.20;;;4.30;99.90;;;;;;5013334;28;20022;-76
2021/03/28 00:43:42;;;;;;;76.80;8.13;;;4.30;99.90;;;;;;5013363;28;20026;-75
2021/03/28 00:46:08;;;;;;;60.25;7.57;;;4.30;99.90;;;;;;5013165;28;20030;-75
2021/03/28 00:48:35;;;;;;;61.35;9.25;;;4.30;99.90;;;;;;5011764;28;20065;-75
2021/03/28 00:51:15;;;;;;;60.22;7.13;;;4.30;99.90;;;;;;5013074;28;20080;-75
2021/03/28 00:53:45;;;;;;;73.90;8.73;;;4.30;99.90;;;;;;5027771;28;20028;-75
2021/03/28 00:56:23;;;;;;;49.25;7.65;;;4.30;99.90;;;;;;5028243;28;20018;-75
2021/03/28 00:58:55;;;;;;;50.10;7.00;;;4.30;99.90;;;;;;5012125;28;20025;-75
2021/03/28 01:01:34;;;;;;;59.35;8.25;;;4.20;99.90;;;;;;5012878;28;20028;-75
2021/03/28 01:04:27;;;;;;;70.15;9.30;;;4.20;99.90;;;;;;5027332;28;20034;-75
2021/03/28 01:07:15;;;;;;;61.70;7.78;;;4.20;99.90;;;;;;5027647;28;20076;-75
2021/03/28 01:10:18;;;;;;;64.15;8.88;;;4.10;99.90;;;;;;5011559;28;20022;-75
2021/03/28 01:13:10;;;;;;;73.88;8.25;;;4.00;99.90;;;;;;5012520;28;20033;-75
2021/03/28 01:15:42;;;;;;;63.17;8.15;;;3.90;99.90;;;;;;5027313;28;20029;-75
2021/03/28 01:18:32;;;;;;;68.03;6.95;;;3.90;99.90;;;;;;5012559;28;20084;-75
2021/03/28 01:21:21;;;;;;;59.13;6.28;;;3.80;99.90;;;;;;5012423;28;20030;-75
2021/03/28 01:24:03;;;;;;;60.10;8.68;;;3.80;99.90;;;;;;5011756;28;20037;-75
2021/03/28 01:26:53;;;;;;;71.55;8.35;;;3.90;99.90;;;;;;5012326;28;20025;-75
2021/03/28 01:29:30;;;;;;;67.75;8.93;;;4.00;99.90;;;;;;5012280;28;20088;-75
2021/03/28 01:32:30;;;;;;;55.40;7.95;;;4.20;99.90;;;;;;5011918;28;20108;-75
2021/03/28 01:35:01;;;;;;;71.22;8.27;;;4.30;99.90;;;;;;5010481;28;20033;-75
2021/03/28 01:37:39;;;;;;;91.63;11.32;;;4.50;99.90;;;;;;5012090;28;20029;-75
2021/03/28 01:40:09;;;;;;;66.97;8.88;;;4.50;99.90;;;;;;5012245;28;20033;-75
2021/03/28 01:42:48;;;;;;;62.83;9.85;;;4.50;99.90;;;;;;5012363;28;20045;-74
2021/03/28 01:45:51;;;;;;;90.25;9.35;;;4.40;99.90;;;;;;5009913;28;20022;-75
2021/03/28 01:48:42;;;;;;;76.60;10.00;;;4.40;99.90;;;;;;5012017;28;20454;-75
2021/03/28 01:51:44;;;;;;;72.78;10.10;;;4.60;99.90;;;;;;5011861;28;20029;-75
2021/03/28 01:54:24;;;;;;;77.18;10.55;;;4.60;99.90;;;;;;5011360;28;20030;-75
2021/03/28 01:56:57;;;;;;;83.95;10.05;;;4.50;99.90;;;;;;5010552;28;20076;-75
2021/03/28 01:59:23;;;;;;;70.93;10.32;;;4.40;99.90;;;;;;5010718;28;20033;-75
2021/03/28 02:02:26;;;;;;;73.35;10.98;;;4.40;99.90;;;;;;5011906;28;20026;-75
2021/03/28 02:05:09;;;;;;;58.03;9.88;;;4.50;99.90;;;;;;4996435;28;20469;-75
2021/03/28 02:07:53;;;;;;;48.95;8.35;;;4.50;99.90;;;;;;5011889;28;20030;-75
2021/03/28 02:10:38;;;;;;;78.03;9.93;;;4.40;99.90;;;;;;5011819;28;20080;-75
2021/03/28 02:13:36;;;;;;;64.28;9.45;;;4.40;99.90;;;;;;5011662;28;20077;-76
2021/03/28 02:16:20;;;;;;;76.00;9.85;;;4.40;99.90;;;;;;5011383;28;20109;-75
2021/03/28 02:19:15;;;;;;;43.67;8.38;;;4.40;99.90;;;;;;5010981;28;20036;-75
2021/03/28 02:21:52;;;;;;;;;;;4.50;99.90;;;;;;4985248;28;20041;-75
2021/03/28 02:24:41;;;;;;;58.33;7.85;;;4.50;99.90;;;;;;5010981;28;19961;-75
2021/03/28 02:27:07;;;;;;;67.30;9.93;;;4.50;99.90;;;;;;5011004;28;20129;-75
2021/03/28 02:29:41;;;;;;;44.95;8.55;;;4.60;99.90;;;;;;5011427;28;20097;-75
2021/03/28 02:32:26;;;;;;;53.80;9.00;;;4.60;99.90;;;;;;5026806;28;20438;-75
2021/03/28 02:35:05;;;;;;;62.75;13.88;;;4.70;99.90;;;;;;5010929;28;20030;-75
2021/03/28 02:38:03;;;;;;;64.78;8.35;;;4.80;99.90;;;;;;5010219;28;20633;-75
2021/03/28 02:40:59;;;;;;;61.88;8.52;;;4.80;99.90;;;;;;5010235;28;20623;-76
2021/03/28 02:43:38;;;;;;;62.95;9.13;;;4.80;99.90;;;;;;5011358;28;20386;-75
2021/03/28 02:46:26;;;;;;;57.58;7.45;;;4.80;99.90;;;;;;5011303;28;20030;-75
2021/03/28 02:49:18;;;;;;;47.47;7.68;;;4.90;99.90;;;;;;5026383;28;20057;-75
2021/03/28 02:51:58;;;;;;;41.65;7.00;;;5.00;99.90;;;;;;5011369;28;20105;-76
2021/03/28 02:54:48;;;;;;;55.65;7.82;;;5.10;99.90;;;;;;5025995;28;20022;-75
2021/03/28 02:57:43;;;;;;;58.13;7.30;;;5.10;99.90;;;;;;5011349;28;20508;-76
2021/03/28 03:00:16;;;;;;;55.08;8.05;;;5.20;99.90;;;;;;5030556;28;20076;-75
2021/03/28 03:03:20;;;;;;;63.10;8.37;;;5.20;99.90;;;;;;5015283;28;20025;-75
2021/03/28 03:05:52;;;;;;;46.53;8.00;;;5.30;99.90;;;;;;4953688;29;20451;-76
2021/03/28 03:08:20;;;;;;;49.13;7.40;;;5.40;99.90;;;;;;5005146;28;20049;-75
2021/03/28 03:10:57;;;;;;;56.58;7.30;;;5.30;99.90;;;;;;5014999;28;20053;-75
2021/03/28 03:13:50;;;;;;;39.65;7.40;;;5.30;99.90;;;;;;5015028;28;20057;-75
2021/03/28 03:17:02;;;;;;;52.20;9.43;;;5.30;99.90;;;;;;5014971;28;20022;-75
2021/03/28 03:20:13;;;;;;;33.63;6.30;;;5.40;99.90;;;;;;5014854;28;20036;-75
2021/03/28 03:23:02;;;;;;;44.33;6.32;;;5.50;99.90;;;;;;5014763;28;20076;-75
2021/03/28 03:25:47;;;;;;;39.20;7.10;;;5.50;99.90;;;;;;5014005;28;20025;-76
2021/03/28 03:28:48;;;;;;;37.60;6.30;;;5.50;99.90;;;;;;5014396;28;20502;-75
2021/03/28 03:31:41;;;;;;;46.17;7.65;;;5.50;99.90;;;;;;5014662;28;20072;-75
2021/03/28 03:34:26;;;;;;;34.42;6.43;;;5.60;99.90;;;;;;5012560;28;20026;-76
2021/03/28 03:37:36;;;;;;;40.72;7.22;;;5.50;99.90;;;;;;5014124;28;20462;-75
2021/03/28 03:40:30;;;;;;;50.03;7.45;;;5.50;99.90;;;;;;4986000;28;20029;-75
2021/03/28 03:43:35;;;;;;;43.53;7.15;;;5.50;99.90;;;;;;5029711;28;20117;-75
2021/03/28 03:46:09;;;;;;;;;;;5.50;99.90;;;;;;5014364;28;20494;-75
2021/03/28 03:49:16;;;;;;;50.05;9.52;;;5.50;99.90;;;;;;5012838;28;20352;-76
2021/03/28 03:52:11;;;;;;;45.70;8.63;;;5.50;99.90;;;;;;5014412;28;20054;-75
2021/03/28 03:55:30;;;;;;;41.55;7.05;;;5.50;99.90;;;;;;5013638;28;20629;-76
2021/03/28 03:58:21;;;;;;;36.70;6.82;;;5.50;99.90;;;;;;4953520;29;20454;-75
2021/03/28 04:01:12;;;;;;;31.65;6.00;;;5.50;99.90;;;;;;5011781;28;20509;-76
2021/03/28 04:03:53;;;;;;;39.00;7.72;;;5.60;99.90;;;;;;5010822;28;20045;-76
2021/03/28 04:06:36;;;;;;;48.95;6.78;;;5.60;99.90;;;;;;5012809;28;20080;-75
2021/03/28 04:09:08;;;;;;;34.25;6.32;;;5.60;99.90;;;;;;5013670;28;20025;-76
2021/03/28 04:11:42;;;;;;;31.55;5.93;;;5.50;99.90;;;;;;5013912;28;20028;-76
2021/03/28 04:14:29;;;;;;;37.03;7.05;;;5.50;99.90;;;;;;5028361;28;20034;-75
2021/03/28 04:17:16;;;;;;;33.20;7.97;;;5.50;99.90;;;;;;5013757;28;20034;-75
2021/03/28 04:20:19;;;;;;;45.28;7.30;;;5.50;99.90;;;;;;5013838;28;20024;-75
2021/03/28 04:23:15;;;;;;;46.35;5.95;;;5.50;99.90;;;;;;5028924;28;20104;-75
2021/03/28 04:25:49;;;;;;;33.78;6.53;;;5.50;99.90;;;;;;5012878;28;20120;-76
2021/03/28 04:28:21;;;;;;;36.60;6.40;;;5.50;99.90;;;;;;5028810;28;20017;-75
2021/03/28 04:30:58;;;;;;;42.05;7.35;;;5.40;99.90;;;;;;5013579;28;20022;-75
2021/03/28 04:33:43;;;;;;;36.17;5.97;;;5.40;99.90;;;;;;5013171;28;20080;-76
2021/03/28 04:36:14;;;;;;;48.28;6.53;;;5.30;99.90;;;;;;4992533;28;20022;-75
2021/03/28 04:39:07;;;;;;;44.88;5.38;;;5.30;99.90;;;;;;4993793;28;20058;-76
2021/03/28 04:42:02;;;;;;;44.55;6.78;;;5.20;99.90;;;;;;4993779;28;20034;-75
2021/03/28 04:44:46;;;;;;;42.10;7.45;;;5.20;99.90;;;;;;4993028;28;20034;-75
2021/03/28 04:47:55;;;;;;;49.38;6.80;;;5.20;99.90;;;;;;5008404;28;20376;-75
2021/03/28 04:50:52;;;;;;;45.00;7.10;;;5.20;99.90;;;;;;4993637;28;20029;-75
2021/03/28 04:53:38;;;;;;;41.78;6.72;;;5.20;99.90;;;;;;5008748;28;20068;-75
2021/03/28 04:56:42;;;;;;;31.52;6.68;;;5.20;99.90;;;;;;5008243;28;20022;-75
2021/03/28 04:59:10;;;;;;;48.65;5.65;;;5.30;99.90;;;;;;4993369;28;20030;-75
2021/03/28 05:02:02;;;;;;;37.42;7.25;;;5.30;99.90;;;;;;4993265;28;20085;-75
2021/03/28 05:04:49;;;;;;;53.38;9.10;;;5.30;99.90;;;;;;4992566;28;20034;-75
2021/03/28 05:07:52;;;;;;;26.88;5.68;;;5.20;99.90;;;;;;5008326;28;20022;-76
2021/03/28 05:10:36;;;;;;;40.95;6.82;;;5.20;99.90;;;;;;4993235;28;20033;-75
2021/03/28 05:13:29;;;;;;;;;;;5.20;99.90;;;;;;4993540;28;20023;-75
2021/03/28 05:16:15;;;;;;;37.67;6.90;;;5.10;99.90;;;;;;4992563;28;20434;-76
2021/03/28 05:19:18;;;;;;;46.60;7.70;;;5.10;99.90;;;;;;4991784;28;20065;-75
2021/03/28 05:21:52;;;;;;;34.33;6.45;;;5.10;99.90;;;;;;5008020;28;20572;-75
2021/03/28 05:24:52;;;;;;;37.90;7.65;;;5.20;99.90;;;;;;4992200;28;20034;-76
2021/03/28 05:27:49;;;;;;;39.95;7.88;;;5.30;99.90;;;;;;4992711;28;20570;-75
2021/03/28 05:30:53;;;;;;;42.88;7.28;;;5.30;99.90;;;;;;4992884;28;20026;-75
2021/03/28 05:33:49;;;;;;;42.33;8.70;;;5.30;99.90;;;;;;5007843;28;20881;-75
2021/03/28 05:36:22;;;;;;;34.47;5.88;;;5.30;99.90;;;;;;4991578;28;20057;-76
2021/03/28 05:39:06;;;;;;;;;;;5.40;99.90;;;;;;4993232;28;20376;-76
2021/03/28 05:41:50;;;;;;;48.45;7.18;;;5.40;99.90;;;;;;4992648;28;19996;-75
2021/03/28 05:44:27;;;;;;;53.47;8.00;;;5.40;99.90;;;;;;4992004;28;20033;-74
2021/03/28 05:47:18;;;;;;;37.78;7.32;;;5.50;99.90;;;;;;4992334;28;20070;-76
2021/03/28 05:50:11;;;;;;;53.40;7.93;;;5.50;99.90;;;;;;4992590;28;20022;-76
2021/03/28 05:53:21;;;;;;;45.10;6.72;;;5.40;99.90;;;;;;4992594;28;20077;-75
2021/03/28 05:56:23;;;;;;;33.75;6.70;;;5.50;99.90;;;;;;4991842;28;20057;-75
2021/03/28 05:59:10;;;;;;;45.58;7.47;;;5.50;99.90;;;;;;4992384;28;20022;-75
2021/03/28 06:01:44;;;;;;;40.75;8.27;;;5.60;99.90;;;;;;4992465;28;20478;-75
2021/03/28 06:04:48;;;;;;;40.33;7.70;;;5.60;99.90;;;;;;4991711;28;20041;-76
2021/03/28 06:07:49;;;;;;;46.60;6.97;;;5.60;99.90;;;;;;4992360;28;20068;-75
2021/03/28 06:10:37;;;;;;;54.15;8.70;;;5.70;99.90;;;;;;4992303;28;20101;-75
2021/03/28 06:13:50;;;;;;;40.03;7.50;;;5.70;99.90;;;;;;4992168;28;20018;-76
2021/03/28 06:16:41;;;;;;;42.13;8.07;;;5.70;99.90;;;;;;4992260;28;20023;-75
2021/03/28 06:19:34;;;;;;;43.78;7.32;;;5.70;99.90;;;;;;4992194;28;20475;-75
2021/03/28 06:22:35;;;;;;;46.05;8.00;;;5.70;99.90;;;;;;5007315;28;20026;-75
2021/03/28 06:25:16;;;;;;;49.58;8.30;;;5.80;99.90;;;;;;4991434;28;20053;-75
2021/03/28 06:27:48;;;;;;;42.58;8.20;;;5.80;99.90;;;;;;4990662;28;20022;-76
2021/03/28 06:30:41;;;;;;;49.95;8.52;;;5.80;99.90;;;;;;5007179;28;20034;-76
2021/03/28 06:33:50;;;;;;;33.80;7.97;;;5.90;99.90;;;;;;4995014;28;20435;-75
2021/03/28 06:36:50;;;;;;;46.70;8.88;;;5.90;99.90;;;;;;4996163;28;20023;-75
2021/03/28 06:39:36;;;;;;;69.50;9.68;;;6.00;99.90;;;;;;4995998;28;20023;-76
2021/03/28 06:42:27;;;;;;;56.05;9.43;;;6.00;99.90;;;;;;4996028;28;20022;-76
2021/03/28 06:45:18;;;;;;;42.45;9.25;;;6.10;99.90;;;;;;4995146;28;20057;-76
2021/03/28 06:48:53;;;;;;;31.90;7.78;;;6.10;99.90;;;;;;4995755;28;20081;-75
2021/03/28 06:51:40;;;;;;;45.95;9.27;;;6.20;99.90;;;;;;4899781;28;20044;-77
2021/03/28 06:54:43;;;;;;;43.95;9.88;;;6.20;99.90;;;;;;4993927;28;20537;-76
2021/03/28 06:57:50;;;;;;;54.75;10.55;;;6.30;99.90;;;;;;4995639;28;20033;-75
2021/03/28 07:00:55;;;;;;;54.28;10.65;;;6.30;99.90;;;;;;4995620;28;20026;-76
2021/03/28 07:03:47;;;;;;;56.15;10.85;;;6.30;99.90;;;;;;4995090;28;20487;-75
2021/03/28 07:06:36;;;;;;;70.35;12.00;;;6.40;99.90;;;;;;4995274;28;20038;-76
2021/03/28 07:09:20;;;;;;;52.50;12.32;;;6.40;99.90;;;;;;4993962;28;20077;-76
2021/03/28 07:11:58;;;;;;;50.42;13.93;;;6.40;99.90;;;;;;4995247;28;20050;-76
2021/03/28 07:14:35;;;;;;;80.75;16.30;;;6.40;99.90;;;;;;4994608;28;20088;-75
2021/03/28 07:17:27;;;;;;;63.03;12.95;;;6.40;99.90;;;;;;4995094;28;20022;-76
2021/03/28 07:20:27;;;;;;;61.70;17.63;;;6.50;99.90;;;;;;4989436;28;20035;-76
2021/03/28 07:23:29;;;;;;;51.03;14.18;;;6.60;99.90;;;;;;4995149;28;20034;-75
2021/03/28 07:26:00;;;;;;;56.10;14.60;;;6.70;99.90;;;;;;5009217;28;20533;-75
2021/03/28 07:28:44;;;;;;;38.85;13.02;;;6.70;99.90;;;;;;4994994;28;20058;-75
2021/03/28 07:31:16;;;;;;;50.35;13.98;;;6.70;99.90;;;;;;4993726;28;20109;-75
2021/03/28 07:34:11;;;;;;;55.42;14.68;;;6.70;99.90;;;;;;4994258;28;20030;-75
2021/03/28 07:36:41;;;;;;;56.83;15.25;;;6.80;99.90;;;;;;5012076;28;20372;-75
2021/03/28 07:39:44;;;;;;;63.13;14.50;;;6.80;99.90;;;;;;5013220;28;20026;-75
2021/03/28 07:42:28;;;;;;;70.80;14.02;;;6.80;99.90;;;;;;5014165;28;20021;-75
2021/03/28 07:45:24;;;;;;;45.95;14.98;;;6.80;99.90;;;;;;5013521;28;20036;-75
2021/03/28 07:48:23;;;;;;;62.38;14.63;;;6.80;99.90;;;;;;5014050;28;20030;-75
2021/03/28 07:51:26;;;;;;;49.05;15.90;;;6.80;99.90;;;;;;5014292;28;20025;-76
2021/03/28 07:54:09;;;;;;;43.47;13.90;;;6.80;99.90;;;;;;5012387;28;20026;-75
2021/03/28 07:57:02;;;;;;;62.17;15.68;;;6.80;99.90;;;;;;5014183;28;20026;-75
2021/03/28 07:59:45;;;;;;;55.35;17.52;;;6.90;99.90;;;;;;5013984;28;20165;-76
2021/03/28 08:02:35;;;;;;;58.07;15.50;;;6.90;99.90;;;;;;5014085;28;20441;-76
2021/03/28 08:05:25;;;;;;;57.63;16.75;;;6.90;99.90;;;;;;5013205;28;20285;-76
2021/03/28 08:08:19;;;;;;;64.18;16.52;;;6.90;99.90;;;;;;5012651;28;20030;-76
2021/03/28 08:11:20;;;;;;;58.05;15.70;;;7.00;99.90;;;;;;5011690;28;20120;-75
2021/03/28 08:14:09;;;;;;;51.63;17.58;;;7.00;99.90;;;;;;4952346;29;20028;-75
2021/03/28 08:17:00;;;;;;;46.28;15.75;;;7.00;99.90;;;;;;5009780;28;20061;-75
2021/03/28 08:20:06;;;;;;;58.58;17.45;;;7.10;99.90;;;;;;5012365;28;20022;-76
2021/03/28 08:22:40;;;;;;;48.97;16.90;;;7.20;99.90;;;;;;5013839;28;20497;-75
2021/03/28 08:25:40;;;;;;;52.85;15.45;;;7.20;99.90;;;;;;5012888;28;20392;-75
2021/03/28 08:28:05;;;;;;;45.08;15.10;;;7.30;99.90;;;;;;5012799;28;20022;-76
2021/03/28 08:30:54;;;;;;;45.53;15.23;;;7.30;99.90;;;;;;5009949;28;20075;-75
2021/03/28 08:34:13;;;;;;;52.75;15.85;;;7.30;99.90;;;;;;5010332;28;20109;-76
2021/03/28 08:37:06;;;;;;;49.42;15.55;;;7.40;99.90;;;;;;4968124;28;20039;-76
2021/03/28 08:39:56;;;;;;;49.28;15.98;;;7.40;99.90;;;;;;4942352;28;20041;-76
2021/03/28 08:42:28;;;;;;;40.85;14.32;;;7.30;99.90;;;;;;4997407;28;20043;-75
2021/03/28 08:45:18;;;;;;;43.42;14.20;;;7.30;99.90;;;;;;5008991;28;20036;-75
2021/03/28 08:47:49;;;;;;;47.80;14.70;;;7.40;99.90;;;;;;5008395;28;20080;-76
2021/03/28 08:50:33;;;;;;;62.92;15.35;;;7.40;99.90;;;;;;5009603;28;20033;-75
2021/03/28 08:53:33;;;;;;;45.83;14.38;;;7.30;99.90;;;;;;5009755;28;20044;-76
2021/03/28 08:56:19;;;;;;;53.65;15.32;;;7.20;99.90;;;;;;5000167;28;20026;-76
2021/03/28 08:59:22;;;;;;;49.42;15.43;;;7.30;99.90;;;;;;5004967;28;20061;-75
2021/03/28 09:02:17;;;;;;;47.53;13.88;;;7.30;99.90;;;;;;5009020;28;20029;-76
2021/03/28 09:05:11;;;;;;;62.53;15.68;;;7.30;99.90;;;;;;5008778;28;20044;-76
2021/03/28 09:07:53;;;;;;;44.33;13.52;;;7.40;99.90;;;;;;5009717;28;20397;-76
2021/03/28 09:10:53;;;;;;;35.05;11.65;;;7.50;99.90;;;;;;5009451;28;20117;-76
2021/03/28 09:13:18;;;;;;;43.30;12.85;;;7.70;99.90;;;;;;5008941;28;20978;-76
2021/03/28 09:15:53;;;;;;;51.97;13.73;;;7.70;99.90;;;;;;5006675;28;20044;-75
2021/03/28 09:18:43;;;;;;;48.47;12.02;;;7.70;99.90;;;;;;5008956;28;20034;-75
2021/03/28 09:21:37;;;;;;;31.02;11.43;;;7.80;99.90;;;;;;5008841;28;20034;-75
2021/03/28 09:24:24;;;;;;;46.70;12.57;;;7.80;99.90;;;;;;5007524;28;20034;-75
2021/03/28 09:27:04;;;;;;;51.15;11.65;;;7.90;99.90;;;;;;5009001;28;20681;-75
2021/03/28 09:29:55;;;;;;;34.80;11.18;;;8.00;99.90;;;;;;5004053;28;20026;-75
2021/03/28 09:32:58;;;;;;;36.70;11.55;;;8.10;99.90;;;;;;4978050;28;20034;-76
2021/03/28 09:35:36;;;;;;;46.70;10.63;;;8.20;99.90;;;;;;5010447;28;20033;-75
2021/03/28 09:38:33;;;;;;;34.85;10.38;;;8.10;99.90;;;;;;5011985;28;20029;-75
2021/03/28 09:41:23;;;;;;;44.50;10.55;;;8.30;99.90;;;;;;5012129;28;20095;-79
2021/03/28 09:44:04;;;;;;;44.40;10.18;;;8.30;99.90;;;;;;5009822;28;20045;-76
2021/03/28 09:46:52;;;;;;;38.60;9.70;;;8.20;99.90;;;;;;5011996;28;20029;-75
2021/03/28 09:49:40;;;;;;;38.33;8.90;;;8.20;99.90;;;;;;5011081;28;20075;-76
2021/03/28 09:52:37;;;;;;;34.63;7.90;;;8.10;99.90;;;;;;5011691;28;20022;-76
2021/03/28 09:55:22;;;;;;;53.10;11.57;;;8.00;99.90;;;;;;5011388;28;20052;-76
2021/03/28 09:58:17;;;;;;;40.92;8.18;;;8.00;99.90;;;;;;5012118;28;20441;-75
2021/03/28 10:01:10;;;;;;;38.38;8.82;;;8.10;99.90;;;;;;5012264;28;20560;-75
2021/03/28 10:04:04;;;;;;;41.17;8.85;;;8.10;99.90;;;;;;5011450;28;20084;-75
2021/03/28 10:06:31;;;;;;;39.90;9.52;;;8.10;99.90;;;;;;5009764;28;20030;-75
2021/03/28 10:09:17;;;;;;;40.47;9.63;;;8.00;99.90;;;;;;5011817;28;20037;-75
2021/03/28 10:11:58;;;;;;;48.25;9.40;;;8.00;99.90;;;;;;5010205;28;20057;-75
2021/03/28 10:14:50;;;;;;;46.45;10.25;;;7.90;99.90;;;;;;5006830;28;20088;-76
2021/03/28 10:17:28;;;;;;;41.10;8.77;;;7.90;99.90;;;;;;5007479;28;20394;-75
2021/03/28 10:20:10;;;;;;;39.10;8.30;;;7.90;99.90;;;;;;5006577;28;20083;-75
2021/03/28 10:23:04;;;;;;;48.58;8.68;;;8.00;99.90;;;;;;5005813;28;20033;-75
2021/03/28 10:25:50;;;;;;;25.98;7.15;;;8.10;99.90;;;;;;4991517;28;20097;-75
2021/03/28 10:28:43;;;;;;;30.80;8.43;;;8.20;99.90;;;;;;5007290;28;20028;-75
2021/03/28 10:31:35;;;;;;;27.20;7.35;;;8.20;99.90;;;;;;5006633;28;20030;-75
2021/03/28 10:34:25;;;;;;;40.20;10.23;;;8.20;99.90;;;;;;5008426;28;20022;-75
2021/03/28 10:37:28;;;;;;;30.33;7.43;;;8.30;99.90;;;;;;5006381;28;20026;-75
2021/03/28 10:40:28;;;;;;;51.28;8.75;;;8.30;99.90;;;;;;5001789;28;20057;-76
2021/03/28 10:43:02;;;;;;;48.45;8.20;;;8.20;99.90;;;;;;5008014;28;20505;-75
2021/03/28 10:45:31;;;;;;;29.33;7.75;;;8.20;99.90;;;;;;5007365;28;20026;-75
2021/03/28 10:48:27;;;;;;;44.03;7.68;;;8.20;99.90;;;;;;5006357;28;20030;-75
2021/03/28 10:51:22;;;;;;;35.30;7.85;;;8.10;99.90;;;;;;5007970;28;20030;-76
2021/03/28 10:54:20;;;;;;;35.58;7.10;;;8.10;99.90;;;;;;5007069;28;20410;-75
2021/03/28 10:57:05;;;;;;;42.80;7.97;;;8.00;99.90;;;;;;5005403;28;20026;-76
2021/03/28 10:59:49;;;;;;;28.50;8.35;;;7.90;99.90;;;;;;5007940;28;20030;-76
2021/03/28 11:02:45;;;;;;;34.50;7.97;;;7.90;99.90;;;;;;5007935;28;20147;-75
2021/03/28 11:05:57;;;;;;;43.90;9.32;;;7.90;99.90;;;;;;5013052;28;20060;-75
2021/03/28 11:09:01;;;;;;;40.40;8.77;;;7.90;99.90;;;;;;4996057;28;20125;-75
2021/03/28 11:11:51;;;;;;;38.72;11.88;;;7.90;99.90;;;;;;5007926;28;20392;-76
2021/03/28 11:14:44;;;;;;;37.13;8.93;;;7.90;99.90;;;;;;5007250;28;20037;-76
2021/03/28 11:17:34;;;;;;;42.53;8.98;;;7.80;99.90;;;;;;5006199;28;20018;-76
2021/03/28 11:20:25;;;;;;;31.98;8.27;;;7.80;99.90;;;;;;5011640;28;20033;-76
2021/03/28 11:23:07;;;;;;;30.45;7.95;;;7.80;99.90;;;;;;5005918;28;20382;-76
2021/03/28 11:25:55;;;;;;;47.25;9.48;;;7.80;99.90;;;;;;5010461;28;21260;-77
2021/03/28 11:28:47;;;;;;;28.63;6.85;;;7.90;99.90;;;;;;5010551;28;20030;-76
2021/03/28 11:31:55;;;;;;;35.35;7.90;;;7.80;99.90;;;;;;5010002;28;20022;-76
2021/03/28 11:34:53;;;;;;;31.48;6.90;;;7.80;99.90;;;;;;5005417;28;20398;-75
2021/03/28 11:37:36;;;;;;;41.47;8.23;;;7.90;99.90;;;;;;5009095;28;20018;-75
2021/03/28 11:40:12;;;;;;;45.07;6.87;;;7.90;99.90;;;;;;5010675;28;20026;-75
2021/03/28 11:42:39;;;;;;;34.13;7.03;;;7.90;99.90;;;;;;5012379;28;20041;-76
2021/03/28 11:45:30;;;;;;;29.92;7.13;;;7.90;99.90;;;;;;5011418;28;20049;-75
2021/03/28 11:47:56;;;;;;;37.25;7.13;;;7.90;99.90;;;;;;5010352;28;20030;-76
2021/03/28 11:50:30;;;;;;;31.55;7.25;;;7.90;99.90;;;;;;5011027;28;20406;-76
2021/03/28 11:53:17;;;;;;;33.45;7.95;;;7.90;99.90;;;;;;5010773;28;20034;-75
2021/03/28 11:56:00;;;;;;;35.08;7.75;;;7.90;99.90;;;;;;5010339;28;20494;-76
2021/03/28 11:58:34;;;;;;;40.00;7.50;;;7.90;99.90;;;;;;5007744;28;20056;-76
2021/03/28 12:00:59;;;;;;;;;;;7.90;99.90;;;;;;5011298;28;20103;-76
2021/03/28 12:03:38;;;;;;;33.95;6.18;;;7.80;99.90;;;;;;5025571;28;19913;-76
2021/03/28 12:06:18;;;;;;;45.08;6.72;;;7.80;99.90;;;;;;5002203;28;20394;-75
2021/03/28 12:08:47;;;;;;;39.97;7.20;;;7.70;99.90;;;;;;5009484;28;20034;-75
2021/03/28 12:11:47;;;;;;;33.47;7.63;;;7.70;99.90;;;;;;5008975;28;20113;-76
2021/03/28 12:14:13;;;;;;;34.22;6.55;;;7.70;99.90;;;;;;5009746;28;20104;-76
2021/03/28 12:17:10;;;;;;;35.42;7.32;;;7.60;99.90;;;;;;5010490;28;20149;-75
2021/03/28 12:20:06;;;;;;;36.08;7.53;;;7.60;99.90;;;;;;5009059;28;20030;-75
2021/03/28 12:22:52;;;;;;;39.58;8.63;;;7.50;99.90;;;;;;5009880;28;20036;-76
2021/03/28 12:25:35;;;;;;;40.65;7.68;;;7.50;99.90;;;;;;5008773;28;20224;-76
2021/03/28 12:28:20;;;;;;;32.67;7.82;;;7.50;99.90;;;;;;5010113;28;20052;-74
2021/03/28 12:30:45;;;;;;;41.58;9.27;;;7.50;99.90;;;;;;5010522;28;20036;-75
2021/03/28 12:33:15;;;;;;;48.42;10.43;;;7.40;99.90;;;;;;5008939;28;20550;-75
2021/03/28 12:35:46;;;;;;;47.30;10.02;;;7.40;99.90;;;;;;5001366;28;20085;-75
2021/03/28 12:38:46;;;;;;;40.35;9.15;;;7.40;99.90;;;;;;5008323;28;20037;-75
2021/03/28 12:41:24;;;;;;;50.33;10.23;;;7.30;99.90;;;;;;5006912;28;20057;-76
2021/03/28 12:44:25;;;;;;;58.72;11.27;;;7.40;99.90;;;;;;5012348;28;20026;-75
2021/03/28 12:46:57;;;;;;;58.22;11.70;;;7.40;99.90;;;;;;5012697;28;20105;-76
2021/03/28 12:49:52;;;;;;;49.95;9.32;;;7.40;99.90;;;;;;5013121;28;20026;-76
2021/03/28 12:52:31;;;;;;;36.95;8.70;;;7.30;99.90;;;;;;5010363;28;20030;-75
2021/03/28 12:54:56;;;;;;;67.43;10.50;;;7.30;99.90;;;;;;5010209;28;20034;-76
2021/03/28 12:57:42;;;;;;;56.88;10.25;;;7.30;99.90;;;;;;5005259;28;20111;-76
2021/03/28 13:00:39;;;;;;;48.10;9.05;;;7.40;99.90;;;;;;5009549;28;20018;-75
2021/03/28 13:03:22;;;;;;;67.55;10.60;;;7.40;99.90;;;;;;4995403;28;20038;-76
2021/03/28 13:06:08;;;;;;;57.67;12.30;;;7.40;99.90;;;;;;5007400;28;20034;-76
2021/03/28 13:08:47;;;;;;;41.92;10.48;;;7.40;99.90;;;;;;5009028;28;20277;-76
2021/03/28 13:11:14;;;;;;;64.30;12.02;;;7.40;99.90;;;;;;5009138;28;20112;-75
2021/03/28 13:13:50;;;;;;;52.10;10.00;;;7.40;99.90;;;;;;5012176;28;20041;-76
2021/03/28 13:16:30;;;;;;;70.20;11.68;;;7.40;99.90;;;;;;5012758;28;20026;-76
2021/03/28 13:18:58;;;;;;;41.70;11.32;;;7.40;99.90;;;;;;5011104;28;20130;-75
2021/03/28 13:21:25;;;;;;;43.05;9.35;;;7.40;99.90;;;;;;5012647;28;20050;-75
2021/03/28 13:23:52;;;;;;;45.10;10.68;;;7.40;99.90;;;;;;5010718;28;20030;-76
2021/03/28 13:26:56;;;;;;;54.78;11.68;;;7.40;99.90;;;;;;5012415;28;20038;-76
2021/03/28 13:29:37;;;;;;;52.47;9.60;;;7.40;99.90;;;;;;5012388;28;20052;-76
2021/03/28 13:32:22;;;;;;;41.83;9.20;;;7.40;99.90;;;;;;5012538;28;20185;-75
2021/03/28 13:34:50;;;;;;;50.97;9.52;;;7.40;99.90;;;;;;5011575;28;20030;-76
2021/03/28 13:37:28;;;;;;;58.95;11.52;;;7.30;99.90;;;;;;5010379;28;20049;-76
2021/03/28 13:40:15;;;;;;;54.35;11.63;;;7.30;99.90;;;;;;5011019;28;20030;-76
2021/03/28 13:42:48;;;;;;;56.40;12.35;;;7.30;99.90;;;;;;5012154;28;20053;-75
2021/03/28 13:45:16;;;;;;;45.92;10.93;;;7.30;99.90;;;;;;5010093;28;20030;-76
2021/03/28 13:47:49;;;;;;;58.40;11.95;;;7.30;99.90;;;;;;5011648;28;20044;-76
2021/03/28 13:50:18;;;;;;;74.13;14.18;;;7.30;99.90;;;;;;5012205;28;20030;-76
2021/03/28 13:52:44;;;;;;;55.88;12.77;;;7.30;99.90;;;;;;5011729;28;20033;-76
2021/03/28 13:55:13;;;;;;;58.00;10.32;;;7.30;99.90;;;;;;5011457;28;20037;-76
2021/03/28 13:57:41;;;;;;;53.30;11.00;;;7.30;99.90;;;;;;5011438;28;20522;-76
2021/03/28 14:00:27;;;;;;;50.60;11.10;;;7.30;99.90;;;;;;5011642;28;20066;-75
2021/03/28 14:02:55;;;;;;;49.55;10.90;;;7.30;99.90;;;;;;5012031;28;20029;-75
2021/03/28 14:05:23;;;;;;;60.17;12.15;;;7.30;99.90;;;;;;5011105;28;20021;-75
2021/03/28 14:07:55;;;;;;;51.85;9.85;;;7.30;99.90;;;;;;5011449;28;20092;-75
2021/03/28 14:10:34;;;;;;;62.95;11.18;;;7.30;99.90;;;;;;5010511;28;20643;-75
2021/03/28 14:13:13;;;;;;;63.13;11.40;;;7.30;99.90;;;;;;5010637;28;20026;-75
2021/03/28 14:15:46;;;;;;;58.20;11.48;;;7.30;99.90;;;;;;5011254;28;20478;-75
2021/03/28 14:18:12;;;;;;;38.58;10.43;;;7.30;99.90;;;;;;5011133;28;20030;-76
2021/03/28 14:20:42;;;;;;;58.00;11.80;;;7.30;99.90;;;;;;5011524;28;20037;-75
2021/03/28 14:23:10;;;;;;;42.15;10.23;;;7.30;99.90;;;;;;5011453;28;20026;-75